Kaleen Mc Allister — WDB3847 — position and weather

sailwx.info

Track history (hours):
 
Tides and Currents Weather Stations Pressure Air Temp Water Temp Dewpoint Dewpoint Depression Visibility Wind Speed Wind Dir Waves Ship Positions

Kaleen Mc Allister

Owner: MC ALLISTER TOWING & TRANSPORTATION INC, NEW YORK, NY. More information available from US FCC via Universal Licensing System and Coast Guard Vessel Documentation Center.

Last reported at 2017-Feb-22 14:32 UTC. Time now 2017-Feb-22 15:16 UTC.
Position N 39°16' W 076°35'.

Length 31 m; draft 4 m.

Type: Tug. MMSI: 366891960.

Date/timePositionNaut miles runAvg speedWind from/ knotsBaromVisibWave heightAir tempDewpointWater temp
2017-Feb-22 14:32N 39°16' W 076°35'1 1.4
2017-Feb-22 13:33N 39°15' W 076°34'1 1.0
2017-Feb-22 12:29N 39°14' W 076°33'1 1.2
2017-Feb-22 11:33N 39°15' W 076°33'0 0.1
2017-Feb-22 10:34N 39°15' W 076°33'2 1.7
2017-Feb-22 09:33N 39°16' W 076°35'0 0.0
2017-Feb-22 08:34N 39°16' W 076°35'0 0.0
2017-Feb-22 07:33N 39°16' W 076°35'0 0.0
2017-Feb-22 06:34N 39°16' W 076°35'0 0.0
2017-Feb-22 05:33N 39°16' W 076°35'0 0.0
2017-Feb-22 04:33N 39°16' W 076°35'0 0.0
2017-Feb-22 03:33N 39°16' W 076°35'0 0.0
2017-Feb-22 02:33N 39°16' W 076°35'0 0.0
2017-Feb-22 01:34N 39°16' W 076°35'0 0.0
2017-Feb-22 00:33N 39°16' W 076°35'2 2.0
2017-Feb-21 23:33N 39°15' W 076°33'1 1.2
2017-Feb-21 22:33N 39°15' W 076°34'1 1.0
2017-Feb-21 21:33N 39°16' W 076°35'0 0.0
2017-Feb-21 20:33N 39°16' W 076°35'0 0.0
2017-Feb-21 19:33N 39°16' W 076°35'0 0.0
2017-Feb-21 18:34N 39°16' W 076°35'0 0.0
2017-Feb-21 17:33N 39°16' W 076°35'0 0.0
2017-Feb-21 16:33N 39°16' W 076°35'0 0.0
2017-Feb-21 15:33N 39°16' W 076°35'0 0.0
2017-Feb-21 14:33N 39°16' W 076°35'0 0.0
2017-Feb-21 13:25N 39°16' W 076°35'0 0.0
2017-Feb-21 12:32N 39°16' W 076°35'0 0.0
2017-Feb-21 11:22N 39°16' W 076°35'0 0.0
2017-Feb-21 06:32N 39°16' W 076°35'0 0.0
2017-Feb-21 03:31N 39°16' W 076°35'0 0.0
2017-Feb-21 02:07N 39°16' W 076°35'0 0.0
2017-Feb-21 01:33N 39°16' W 076°35'0 0.0
2017-Feb-21 00:27N 39°16' W 076°35'0 0.0
2017-Feb-20 23:32N 39°16' W 076°35'0 0.0
2017-Feb-20 22:23N 39°16' W 076°35'0 0.0
2017-Feb-20 21:29N 39°16' W 076°35'0 0.0
2017-Feb-20 19:29N 39°16' W 076°35'0 0.0
2017-Feb-20 18:14N 39°16' W 076°35'0 0.0
2017-Feb-20 16:28N 39°16' W 076°35'0 0.0
2017-Feb-20 15:29N 39°16' W 076°35'0 0.0
2017-Feb-20 13:03N 39°16' W 076°35'0 0.0
2017-Feb-20 10:29N 39°16' W 076°35'0 0.0
2017-Feb-20 07:17N 39°16' W 076°35'0 0.0
2017-Feb-20 06:19N 39°16' W 076°35'0 0.0
2017-Feb-20 05:25N 39°16' W 076°35'1 1.0
2017-Feb-20 04:30N 39°16' W 076°34'0 0.1
2017-Feb-20 03:30N 39°15' W 076°34'1 1.0
2017-Feb-20 02:21N 39°15' W 076°32'1 1.8
2017-Feb-20 01:33N 39°16' W 076°34'0 0.0
2017-Feb-20 00:33N 39°16' W 076°34'0 0.0
2017-Feb-19 23:33N 39°16' W 076°34'1 0.7
2017-Feb-19 22:34N 39°15' W 076°34'2 1.6
2017-Feb-19 21:34N 39°16' W 076°35'0 0.1
2017-Feb-19 20:34N 39°16' W 076°35'0 0.0
2017-Feb-19 19:33N 39°16' W 076°35'0 0.0
2017-Feb-19 18:33N 39°16' W 076°35'0 0.0
2017-Feb-19 17:33N 39°16' W 076°35'0 0.0
2017-Feb-19 16:32N 39°16' W 076°35'0 0.0
2017-Feb-19 15:33N 39°16' W 076°35'0 0.0
2017-Feb-19 14:33N 39°16' W 076°35'0 0.0
2017-Feb-19 13:33N 39°16' W 076°35'0 0.0
2017-Feb-19 12:33N 39°16' W 076°35'2 2.4
2017-Feb-19 11:33N 39°14' W 076°33'74 9.2
2017-Feb-19 03:33N 38°01' W 076°20'10 9.8
2017-Feb-19 02:31N 38°07' W 076°31'  
2017-Feb-15 22:20N 38°08' W 076°32'0 0.1
2017-Feb-15 21:18N 38°08' W 076°32'0 0.1
2017-Feb-15 20:23N 38°08' W 076°32'4 1.9
2017-Feb-15 18:04N 38°05' W 076°28'5 8.8
2017-Feb-15 17:32N 38°02' W 076°23'8 6.1
2017-Feb-15 16:15N 38°07' W 076°15'49 9.9
2017-Feb-15 11:21N 38°55' W 076°24'8 9.7
2017-Feb-15 10:33N 39°03' W 076°23'9 9.3
2017-Feb-15 09:33N 39°11' W 076°29'7 6.8
2017-Feb-15 08:33N 39°16' W 076°35'0 0.0
2017-Feb-15 07:33N 39°16' W 076°35'0 0.0
2017-Feb-15 06:33N 39°16' W 076°35'0 0.0
2017-Feb-15 05:33N 39°16' W 076°35'0 0.0
2017-Feb-15 04:33N 39°16' W 076°35'0 0.0
2017-Feb-15 03:31N 39°16' W 076°35'0 0.0
2017-Feb-15 02:30N 39°16' W 076°35'0 0.0
2017-Feb-15 01:32N 39°16' W 076°35'0 0.0
2017-Feb-15 00:33N 39°16' W 076°35'0 0.0
2017-Feb-14 23:32N 39°16' W 076°35'0 0.0
2017-Feb-14 22:33N 39°16' W 076°35'0 0.0
2017-Feb-14 21:33N 39°16' W 076°35'0 0.0
2017-Feb-14 20:33N 39°16' W 076°35'0 0.0
2017-Feb-14 19:34N 39°16' W 076°35'0 0.0
2017-Feb-14 18:34N 39°16' W 076°35'0 0.0
2017-Feb-14 17:33N 39°16' W 076°35'0 0.0
2017-Feb-14 16:33N 39°16' W 076°35'0 0.0
2017-Feb-14 15:33N 39°16' W 076°35'0 0.0
2017-Feb-14 14:33N 39°16' W 076°35'0 0.0
2017-Feb-14 13:31N 39°16' W 076°35'0 0.0
2017-Feb-14 12:32N 39°16' W 076°35'0 0.0
2017-Feb-14 11:34N 39°16' W 076°35'0 0.0
2017-Feb-14 10:33N 39°16' W 076°35'0 0.0
2017-Feb-14 09:34N 39°16' W 076°35'0 0.0
2017-Feb-14 08:33N 39°16' W 076°35'0 0.2
2017-Feb-14 07:33N 39°16' W 076°35'2 1.9
2017-Feb-14 06:33N 39°15' W 076°33'2 2.1
2017-Feb-14 05:33N 39°16' W 076°35'0 0.0
2017-Feb-14 04:33N 39°16' W 076°35'0 0.0
2017-Feb-14 03:33N 39°16' W 076°35'0 0.0
2017-Feb-14 02:33N 39°16' W 076°35'0 0.0
2017-Feb-14 01:33N 39°16' W 076°35'0 0.0
2017-Feb-14 00:33N 39°16' W 076°35'0 0.0
2017-Feb-13 23:33N 39°16' W 076°35'0 0.0
2017-Feb-13 22:33N 39°16' W 076°35'0 0.0
2017-Feb-13 21:33N 39°16' W 076°35'0 0.0
2017-Feb-13 20:33N 39°16' W 076°35'0 0.0
2017-Feb-13 19:34N 39°16' W 076°35'0 0.0
2017-Feb-13 18:33N 39°16' W 076°35'0 0.0
2017-Feb-13 17:33N 39°16' W 076°35'0 0.0
2017-Feb-13 16:34N 39°16' W 076°35'0 0.0
2017-Feb-13 15:33N 39°16' W 076°35'0 0.0
2017-Feb-13 14:33N 39°16' W 076°35'0 0.0
2017-Feb-13 13:33N 39°16' W 076°35'0 0.0
2017-Feb-13 12:34N 39°16' W 076°35'0 0.0
2017-Feb-13 11:33N 39°16' W 076°35'0 0.0
2017-Feb-13 10:33N 39°16' W 076°35'0 0.0
2017-Feb-13 09:34N 39°16' W 076°35'0 0.0
2017-Feb-13 08:33N 39°16' W 076°35'0 0.0
2017-Feb-13 07:33N 39°16' W 076°35'0 0.0
2017-Feb-13 06:33N 39°16' W 076°35'0 0.0
2017-Feb-13 05:33N 39°16' W 076°35'0 0.4
2017-Feb-13 04:33N 39°16' W 076°34'3 3.1
2017-Feb-13 03:33N 39°13' W 076°32'3 3.5
2017-Feb-13 02:33N 39°16' W 076°35'0 0.0
2017-Feb-13 01:33N 39°16' W 076°35'0 0.0
2017-Feb-13 00:33N 39°16' W 076°35'0 0.0
2017-Feb-12 23:34N 39°16' W 076°35'0 0.0
2017-Feb-12 22:33N 39°16' W 076°35'0 0.0
2017-Feb-12 21:30N 39°16' W 076°35'1 0.6
2017-Feb-12 20:33N 39°16' W 076°34'2 1.7
2017-Feb-12 19:33N 39°14' W 076°33'2 2.2
2017-Feb-12 18:33N 39°16' W 076°35'0 0.1
2017-Feb-12 17:33N 39°16' W 076°35'0 0.0
2017-Feb-12 16:33N 39°16' W 076°35'0 0.0
2017-Feb-12 15:33N 39°16' W 076°35'0 0.0
2017-Feb-12 14:33N 39°16' W 076°35'  
Track history (hours):
 
Tides and Currents Weather Stations Pressure Air Temp Water Temp Dewpoint Dewpoint Depression Visibility Wind Speed Wind Dir Waves Ship Positions

Kaleen Mc Allister

Owner: MC ALLISTER TOWING & TRANSPORTATION INC, NEW YORK, NY. More information available from US FCC via Universal Licensing System and Coast Guard Vessel Documentation Center.

Last reported at 2017-Feb-22 14:32 UTC. Time now 2017-Feb-22 15:16 UTC.
Position N 39°16' W 076°35'.

Length 31 m; draft 4 m.

Type: Tug. MMSI: 366891960.

Date/timePositionNaut miles runAvg speedWind from/ knotsBaromVisibWave heightAir tempDewpointWater temp
2017-Feb-22 14:32N 39°16' W 076°35'1 1.4
2017-Feb-22 13:33N 39°15' W 076°34'1 1.0
2017-Feb-22 12:29N 39°14' W 076°33'1 1.2
2017-Feb-22 11:33N 39°15' W 076°33'0 0.1
2017-Feb-22 10:34N 39°15' W 076°33'2 1.7
2017-Feb-22 09:33N 39°16' W 076°35'0 0.0
2017-Feb-22 08:34N 39°16' W 076°35'0 0.0
2017-Feb-22 07:33N 39°16' W 076°35'0 0.0
2017-Feb-22 06:34N 39°16' W 076°35'0 0.0
2017-Feb-22 05:33N 39°16' W 076°35'0 0.0
2017-Feb-22 04:33N 39°16' W 076°35'0 0.0
2017-Feb-22 03:33N 39°16' W 076°35'0 0.0
2017-Feb-22 02:33N 39°16' W 076°35'0 0.0
2017-Feb-22 01:34N 39°16' W 076°35'0 0.0
2017-Feb-22 00:33N 39°16' W 076°35'2 2.0
2017-Feb-21 23:33N 39°15' W 076°33'1 1.2
2017-Feb-21 22:33N 39°15' W 076°34'1 1.0
2017-Feb-21 21:33N 39°16' W 076°35'0 0.0
2017-Feb-21 20:33N 39°16' W 076°35'0 0.0
2017-Feb-21 19:33N 39°16' W 076°35'0 0.0
2017-Feb-21 18:34N 39°16' W 076°35'0 0.0
2017-Feb-21 17:33N 39°16' W 076°35'0 0.0
2017-Feb-21 16:33N 39°16' W 076°35'0 0.0
2017-Feb-21 15:33N 39°16' W 076°35'0 0.0
2017-Feb-21 14:33N 39°16' W 076°35'0 0.0
2017-Feb-21 13:25N 39°16' W 076°35'0 0.0
2017-Feb-21 12:32N 39°16' W 076°35'0 0.0
2017-Feb-21 11:22N 39°16' W 076°35'0 0.0
2017-Feb-21 06:32N 39°16' W 076°35'0 0.0
2017-Feb-21 03:31N 39°16' W 076°35'0 0.0
2017-Feb-21 02:07N 39°16' W 076°35'0 0.0
2017-Feb-21 01:33N 39°16' W 076°35'0 0.0
2017-Feb-21 00:27N 39°16' W 076°35'0 0.0
2017-Feb-20 23:32N 39°16' W 076°35'0 0.0
2017-Feb-20 22:23N 39°16' W 076°35'0 0.0
2017-Feb-20 21:29N 39°16' W 076°35'0 0.0
2017-Feb-20 19:29N 39°16' W 076°35'0 0.0
2017-Feb-20 18:14N 39°16' W 076°35'0 0.0
2017-Feb-20 16:28N 39°16' W 076°35'0 0.0
2017-Feb-20 15:29N 39°16' W 076°35'0 0.0
2017-Feb-20 13:03N 39°16' W 076°35'0 0.0
2017-Feb-20 10:29N 39°16' W 076°35'0 0.0
2017-Feb-20 07:17N 39°16' W 076°35'0 0.0
2017-Feb-20 06:19N 39°16' W 076°35'0 0.0
2017-Feb-20 05:25N 39°16' W 076°35'1 1.0
2017-Feb-20 04:30N 39°16' W 076°34'0 0.1
2017-Feb-20 03:30N 39°15' W 076°34'1 1.0
2017-Feb-20 02:21N 39°15' W 076°32'1 1.8
2017-Feb-20 01:33N 39°16' W 076°34'0 0.0
2017-Feb-20 00:33N 39°16' W 076°34'0 0.0
2017-Feb-19 23:33N 39°16' W 076°34'1 0.7
2017-Feb-19 22:34N 39°15' W 076°34'2 1.6
2017-Feb-19 21:34N 39°16' W 076°35'0 0.1
2017-Feb-19 20:34N 39°16' W 076°35'0 0.0
2017-Feb-19 19:33N 39°16' W 076°35'0 0.0
2017-Feb-19 18:33N 39°16' W 076°35'0 0.0
2017-Feb-19 17:33N 39°16' W 076°35'0 0.0
2017-Feb-19 16:32N 39°16' W 076°35'0 0.0
2017-Feb-19 15:33N 39°16' W 076°35'0 0.0
2017-Feb-19 14:33N 39°16' W 076°35'0 0.0
2017-Feb-19 13:33N 39°16' W 076°35'0 0.0
2017-Feb-19 12:33N 39°16' W 076°35'2 2.4
2017-Feb-19 11:33N 39°14' W 076°33'74 9.2
2017-Feb-19 03:33N 38°01' W 076°20'10 9.8
2017-Feb-19 02:31N 38°07' W 076°31'  
2017-Feb-15 22:20N 38°08' W 076°32'0 0.1
2017-Feb-15 21:18N 38°08' W 076°32'0 0.1
2017-Feb-15 20:23N 38°08' W 076°32'4 1.9
2017-Feb-15 18:04N 38°05' W 076°28'5 8.8
2017-Feb-15 17:32N 38°02' W 076°23'8 6.1
2017-Feb-15 16:15N 38°07' W 076°15'49 9.9
2017-Feb-15 11:21N 38°55' W 076°24'8 9.7
2017-Feb-15 10:33N 39°03' W 076°23'9 9.3
2017-Feb-15 09:33N 39°11' W 076°29'7 6.8
2017-Feb-15 08:33N 39°16' W 076°35'0 0.0
2017-Feb-15 07:33N 39°16' W 076°35'0 0.0
2017-Feb-15 06:33N 39°16' W 076°35'0 0.0
2017-Feb-15 05:33N 39°16' W 076°35'0 0.0
2017-Feb-15 04:33N 39°16' W 076°35'0 0.0
2017-Feb-15 03:31N 39°16' W 076°35'0 0.0
2017-Feb-15 02:30N 39°16' W 076°35'0 0.0
2017-Feb-15 01:32N 39°16' W 076°35'0 0.0
2017-Feb-15 00:33N 39°16' W 076°35'0 0.0
2017-Feb-14 23:32N 39°16' W 076°35'0 0.0
2017-Feb-14 22:33N 39°16' W 076°35'0 0.0
2017-Feb-14 21:33N 39°16' W 076°35'0 0.0
2017-Feb-14 20:33N 39°16' W 076°35'0 0.0
2017-Feb-14 19:34N 39°16' W 076°35'0 0.0
2017-Feb-14 18:34N 39°16' W 076°35'0 0.0
2017-Feb-14 17:33N 39°16' W 076°35'0 0.0
2017-Feb-14 16:33N 39°16' W 076°35'0 0.0
2017-Feb-14 15:33N 39°16' W 076°35'0 0.0
2017-Feb-14 14:33N 39°16' W 076°35'0 0.0
2017-Feb-14 13:31N 39°16' W 076°35'0 0.0
2017-Feb-14 12:32N 39°16' W 076°35'0 0.0
2017-Feb-14 11:34N 39°16' W 076°35'0 0.0
2017-Feb-14 10:33N 39°16' W 076°35'0 0.0
2017-Feb-14 09:34N 39°16' W 076°35'0 0.0
2017-Feb-14 08:33N 39°16' W 076°35'0 0.2
2017-Feb-14 07:33N 39°16' W 076°35'2 1.9
2017-Feb-14 06:33N 39°15' W 076°33'2 2.1
2017-Feb-14 05:33N 39°16' W 076°35'0 0.0
2017-Feb-14 04:33N 39°16' W 076°35'0 0.0
2017-Feb-14 03:33N 39°16' W 076°35'0 0.0
2017-Feb-14 02:33N 39°16' W 076°35'0 0.0
2017-Feb-14 01:33N 39°16' W 076°35'0 0.0
2017-Feb-14 00:33N 39°16' W 076°35'0 0.0
2017-Feb-13 23:33N 39°16' W 076°35'0 0.0
2017-Feb-13 22:33N 39°16' W 076°35'0 0.0
2017-Feb-13 21:33N 39°16' W 076°35'0 0.0
2017-Feb-13 20:33N 39°16' W 076°35'0 0.0
2017-Feb-13 19:34N 39°16' W 076°35'0 0.0
2017-Feb-13 18:33N 39°16' W 076°35'0 0.0
2017-Feb-13 17:33N 39°16' W 076°35'0 0.0
2017-Feb-13 16:34N 39°16' W 076°35'0 0.0
2017-Feb-13 15:33N 39°16' W 076°35'0 0.0
2017-Feb-13 14:33N 39°16' W 076°35'0 0.0
2017-Feb-13 13:33N 39°16' W 076°35'0 0.0
2017-Feb-13 12:34N 39°16' W 076°35'0 0.0
2017-Feb-13 11:33N 39°16' W 076°35'0 0.0
2017-Feb-13 10:33N 39°16' W 076°35'0 0.0
2017-Feb-13 09:34N 39°16' W 076°35'0 0.0
2017-Feb-13 08:33N 39°16' W 076°35'0 0.0
2017-Feb-13 07:33N 39°16' W 076°35'0 0.0
2017-Feb-13 06:33N 39°16' W 076°35'0 0.0
2017-Feb-13 05:33N 39°16' W 076°35'0 0.4
2017-Feb-13 04:33N 39°16' W 076°34'3 3.1
2017-Feb-13 03:33N 39°13' W 076°32'3 3.5
2017-Feb-13 02:33N 39°16' W 076°35'0 0.0
2017-Feb-13 01:33N 39°16' W 076°35'0 0.0
2017-Feb-13 00:33N 39°16' W 076°35'0 0.0
2017-Feb-12 23:34N 39°16' W 076°35'0 0.0
2017-Feb-12 22:33N 39°16' W 076°35'0 0.0
2017-Feb-12 21:30N 39°16' W 076°35'1 0.6
2017-Feb-12 20:33N 39°16' W 076°34'2 1.7
2017-Feb-12 19:33N 39°14' W 076°33'2 2.2
2017-Feb-12 18:33N 39°16' W 076°35'0 0.1
2017-Feb-12 17:33N 39°16' W 076°35'0 0.0
2017-Feb-12 16:33N 39°16' W 076°35'0 0.0
2017-Feb-12 15:33N 39°16' W 076°35'0 0.0
2017-Feb-12 14:33N 39°16' W 076°35'  

Dump ship's entire track history